Home > Products > Valid Products > TAF

000
FTUS43 KARX 082306 AAB
TAFRST
TAF AMD
KRST 082306Z 0823/0918 33020KT 3SM -SHSN BKN024
      TEMPO 0823/0901 1 1/2SM -SN
     FM090100 33020KT 6SM -SHSN BKN024=



000
FTUS43 KARX 082012 AAA
TAFRST
TAF AMD
KRST 082012Z 0820/0918 33020KT P6SM -SHSN BKN024=



000
FTUS43 KARX 082011 AAA
TAFLSE
TAF AMD
KLSE 082011Z 0820/0918 32015G22KT P6SM -SHSN BKN025
     FM090200 32014KT P6SM -SHSN BKN035=



000
FTUS43 KARX 081720
TAFRST
TAF
KRST 081720Z 0818/0918 32022G28KT 4SM -SHSN BLSN BKN020
     FM090000 33020KT P6SM -SHSN BKN020=



000
FTUS43 KARX 081720
TAFLSE
TAF
KLSE 081720Z 0818/0918 32015G22KT P6SM -SHSN BKN020
      TEMPO 0819/0821 3SM -SHSN
     FM090200 32014KT P6SM -SHSN BKN025=



000
FTUS43 KARX 081502 AAA
TAFLSE
TAF AMD
KLSE 081502Z 0815/0912 32015G22KT 2SM -SHSN BKN020
      TEMPO 0815/0817 1SM -SHSN BKN015
     FM082000 32014G21KT 5SM -SHSN BKN025
     FM090200 32014KT P6SM -SN OVC025
     FM090800 32013KT P6SM BKN025=



000
FTUS43 KARX 081459 AAA
TAFRST
TAF AMD
KRST 081459Z 0815/0912 32023G30KT 3SM -SHSN BLSN SCT006 BKN012
      TEMPO 0815/0817 1SM -SHSN BLSN
     FM081800 32020G28KT 5SM -SHSN BKN015
     FM090500 33017G26KT P6SM OVC018=



000
FTUS43 KARX 081459 AAA
TAFRST
TAF AMD
KRST 081459Z 0815/0912 32023G30KT 3SM -SHSN BLSN SCT006 BKN012
      TEMPO 0815/0817 1SM -SHSN BLSN
     FM081800 32020G28KT 5SM -SHSN BKN015
     FM090500 33017G26KT P6SM OVC018=



000
FTUS43 KARX 081130
TAFLSE
TAF
KLSE 081130Z 0812/0912 31014G22KT 5SM -SN OVC025
      TEMPO 0812/0816 SCT025 OVC050
     FM090200 32014KT P6SM -SN OVC025
     FM090800 32013KT P6SM BKN025=



000
FTUS43 KARX 081130
TAFRST
TAF
KRST 081130Z 0812/0912 32020G28KT 5SM -SN BLSN OVC025
      TEMPO 0812/0814 2SM -SN BLSN OVC015
     FM081800 32020G28KT P6SM -SN OVC015
     FM090500 33017G26KT P6SM OVC018=



000
FTUS43 KARX 080800 AAA
TAFRST
TAF AMD
KRST 080800Z 0808/0906 32020G28KT 5SM -SN BLSN OVC025
      TEMPO 0808/0810 2SM -SN BLSN OVC015
     FM081200 32024G32KT 2SM -SHSN BLSN OVC012
     FM090200 33018G26KT 6SM -SHSN BKN018=



000
FTUS43 KARX 080800 AAA
TAFRST
TAF AMD
KRST 080800Z 0808/0906 32020G28KT 5SM -SN BLSN OVC025
      TEMPO 0808/0810 2SM -SN BLSN OVC015
     FM081200 32024G32KT 2SM -SHSN BLSN OVC012
     FM090200 33018G26KT 6SM -SHSN BKN018=



000
FTUS43 KARX 080800 AAA
TAFRST
TAF AMD
KRST 080800Z 0808/0906 32020G28KT 5SM -SN BLSN OVC025
      TEMPO 0808/0810 2SM -SN BLSN OVC015
     FM081200 32024G32KT 2SM -SHSN BLSN OVC012
     FM090200 33018G26KT 6SM -SHSN BKN018=



000
FTUS43 KARX 080525
TAFRST
TAF
KRST 080525Z 0806/0906 31024G30KT 1SM -SHSN BLSN OVC015
     FM080700 32022G28KT 3SM -SHSN BLSN OVC015
      TEMPO 0807/0809 1SM -SHSN BLSN OVC010
     FM081200 32024G32KT 2SM -SHSN BLSN OVC012
     FM090200 33018G26KT 6SM -SHSN BKN018=



000
FTUS43 KARX 080525
TAFLSE
TAF
KLSE 080525Z 0806/0906 32016KT 4SM -SHSN OVC020
      TEMPO 0806/0810 2SM -SHSN OVC015
     FM081000 32018G24KT 4SM -SHSN BR OVC020
     FM090200 32016KT 6SM -SHSN BKN025=



000
FTUS43 KARX 080525
TAFRST
TAF
KRST 080525Z 0806/0906 31024G30KT 1SM -SHSN BLSN OVC015
     FM080700 32022G28KT 3SM -SHSN BLSN OVC015
      TEMPO 0807/0809 1SM -SHSN BLSN OVC010
     FM081200 32024G32KT 2SM -SHSN BLSN OVC012
     FM090200 33018G26KT 6SM -SHSN BKN018=



000
FTUS43 KARX 080525
TAFRST
TAF
KRST 080525Z 0806/0906 31024G30KT 1SM -SHSN BLSN OVC015
     FM080700 32022G28KT 3SM -SHSN BLSN OVC015
      TEMPO 0807/0809 1SM -SHSN BLSN OVC010
     FM081200 32024G32KT 2SM -SHSN BLSN OVC012
     FM090200 33018G26KT 6SM -SHSN BKN018=



000
FTUS43 KARX 080525
TAFLSE
TAF
KLSE 080525Z 0806/0906 32016KT 4SM -SHSN OVC020
      TEMPO 0806/0810 2SM -SHSN OVC015
     FM081000 32018G24KT 4SM -SHSN BR OVC020
     FM090200 32016KT 6SM -SHSN BKN025=



000
FTUS43 KARX 080525
TAFLSE
TAF
KLSE 080525Z 0806/0906 32016KT 4SM -SHSN OVC020
      TEMPO 0806/0810 2SM -SHSN OVC015
     FM081000 32018G24KT 4SM -SHSN BR OVC020
     FM090200 32016KT 6SM -SHSN BKN025=



000
FTUS43 KARX 080310 AAA
TAFLSE
TAF AMD
KLSE 080310Z 0803/0824 28012KT 6SM -SN OVC025
     FM080400 30016G24KT 5SM -SHSN OVC020
      TEMPO 0804/0808 1SM -SHSN OVC015=



000
FTUS43 KARX 080305 AAA
TAFRST
TAF AMD
KRST 080305Z 0803/0824 31025G34KT 3SM -SHSN BLSN OVC015
      TEMPO 0803/0806 1SM -SHSN BLSN OVC010=



000
FTUS43 KARX 072320
TAFLSE
TAF
KLSE 072320Z 0800/0824 26014KT P6SM OVC035
     FM080100 29018G26KT 6SM -SHSNRA OVC025
      TEMPO 0801/0803 3SM -SHSN OVC020
     FM080300 30016G24KT 5SM -SHSN OVC020
      TEMPO 0804/0808 1SM -SHSN OVC015=



000
FTUS43 KARX 072320
TAFRST
TAF
KRST 072320Z 0800/0824 30020G28KT 6SM -SHSNRA OVC020
      TEMPO 0800/0802 3SM -SHSN OVC015
     FM080200 32024G32KT 3SM -SHSN BLSN OVC015
      TEMPO 0803/0806 1/2SM -SHSN BLSN OVC010=



000
FTUS43 KARX 072130 AAB
TAFLSE
TAF AMD
KLSE 072130Z 0722/0818 28018G24KT P6SM BKN035
     FM080100 30019G26KT 5SM -SHSN OVC015
      TEMPO 0803/0807 1SM -SHSN BKN008=



000
FTUS43 KARX 072130 AAB
TAFLSE
TAF AMD
KLSE 072130Z 0722/0818 28018G24KT P6SM BKN035
     FM080100 30019G26KT 5SM -SHSN OVC015
      TEMPO 0803/0807 1SM -SHSN BKN008=



000
FTUS43 KARX 072130 AAB
TAFLSE
TAF AMD
KLSE 072130Z 0722/0818 28018G24KT P6SM BKN035
     FM080100 30019G26KT 5SM -SHSN OVC015
      TEMPO 0803/0807 1SM -SHSN BKN008=



000
FTUS43 KARX 072005 AAA
TAFRST
TAF AMD
KRST 072005Z 0720/0818 28021G28KT P6SM BKN035
     FM072300 30019G26KT 3SM -SHSN BKN015
     FM080200 32023G32KT 3SM -SHSN BLSN OVC003
      TEMPO 0810/0814 1/2SM -SHSN BLSN=



000
FTUS43 KARX 072004 AAA
TAFLSE
TAF AMD
KLSE 072004Z 0720/0818 28018G24KT P6SM SCT030
     FM080100 30019G26KT 5SM -SHSN OVC015
      TEMPO 0803/0807 1SM -SHSN BKN008=



000
FTUS43 KARX 071724
TAFLSE
TAF
KLSE 071724Z 0718/0818 27013G22KT P6SM SCT025
     FM072000 27013G22KT P6SM BKN025
     FM080100 30015G25KT 5SM -SHSN OVC015
      TEMPO 0803/0807 1SM -SHSN BKN008=



000
FTUS43 KARX 071724
TAFRST
TAF
KRST 071724Z 0718/0818 28020G27KT P6SM SCT250
     FM072000 28021G28KT P6SM BKN025
     FM072300 28019G26KT 3SM -SHSN BKN015
     FM080200 32023G32KT 3SM -SHSN BLSN OVC003
      TEMPO 0810/0814 1/2SM -SHSN BLSN=



000
FTUS43 KARX 071125
TAFRST
TAF
KRST 071125Z 0712/0812 25014KT P6SM SKC
     FM071500 28021G27KT P6SM SCT250
     FM072000 28019G25KT P6SM BKN025
     FM072300 28019G26KT 3SM -SHSN BKN015
     FM080100 32023G32KT 3SM -SHSN BLSN OVC003=



000
FTUS43 KARX 071125
TAFLSE
TAF
KLSE 071125Z 0712/0812 19009KT P6SM OVC100
     FM071300 24012KT P6SM SCT250
     FM072200 27012KT P6SM BKN025
     FM080100 30014KT 3SM -SHSN OVC015=



000
FTUS43 KARX 071125
TAFRST
TAF
KRST 071125Z 0712/0812 25014KT P6SM SKC
     FM071500 28021G27KT P6SM SCT250
     FM072000 28019G25KT P6SM BKN025
     FM072300 28019G26KT 3SM -SHSN BKN015
     FM080100 32023G32KT 3SM -SHSN BLSN OVC003=



000
FTUS43 KARX 071125
TAFLSE
TAF
KLSE 071125Z 0712/0812 19009KT P6SM OVC100
     FM071300 24012KT P6SM SCT250
     FM072200 27012KT P6SM BKN025
     FM080100 30014KT 3SM -SHSN OVC015=



000
FTUS43 KARX 070530
TAFRST
TAF
KRST 070530Z 0706/0806 21018KT P6SM OVC090
     FM071000 24016KT 6SM BR SCT200
     FM071700 28018G25KT P6SM BKN040
     FM072100 28020G26KT P6SM BKN020
     FM080000 30022G30KT 3SM -SN OVC012=



000
FTUS43 KARX 070530
TAFLSE
TAF
KLSE 070530Z 0706/0806 18010KT P6SM OVC100
     FM071200 24010KT P6SM SCT200
     FM071900 27012KT P6SM BKN050
     FM080200 30014KT 5SM -SN BKN020=



000
FTUS43 KARX 070530
TAFRST
TAF
KRST 070530Z 0706/0806 21018KT P6SM OVC090
     FM071000 24016KT 6SM BR SCT200
     FM071700 28018G25KT P6SM BKN040
     FM072100 28020G26KT P6SM BKN020
     FM080000 30022G30KT 3SM -SN OVC012=



000
FTUS43 KARX 070530
TAFLSE
TAF
KLSE 070530Z 0706/0806 18010KT P6SM OVC100
     FM071200 24010KT P6SM SCT200
     FM071900 27012KT P6SM BKN050
     FM080200 30014KT 5SM -SN BKN020=



000
FTUS43 KARX 070530
TAFLSE
TAF
KLSE 070530Z 0706/0806 18010KT P6SM OVC100
     FM071200 24010KT P6SM SCT200
     FM071900 27012KT P6SM BKN050
     FM080200 30014KT 5SM -SN BKN020=



000
FTUS43 KARX 070530
TAFRST
TAF
KRST 070530Z 0706/0806 21018KT P6SM OVC090
     FM071000 24016KT 6SM BR SCT200
     FM071700 28018G25KT P6SM BKN040
     FM072100 28020G26KT P6SM BKN020
     FM080000 30022G30KT 3SM -SN OVC012=



000
FTUS43 KARX 070344 AAA
TAFRST
TAF AMD
KRST 070344Z 0704/0724 19018KT P6SM BKN090
     FM070800 24018KT 5SM BR FEW200
     FM071400 28020G26KT P6SM BKN040
     FM072100 30022G30KT 3SM HZ BKN020=



000
FTUS43 KARX 070344 AAA
TAFLSE
TAF AMD
KLSE 070344Z 0704/0724 18012KT P6SM BKN100
     FM071000 23012KT P6SM SCT200
     FM071500 26014KT P6SM BKN050=



000
FTUS43 KARX 062338
TAFLSE
TAF
KLSE 062338Z 0700/0724 20012KT P6SM BKN100
     FM071000 23012KT P6SM SCT200
     FM071500 26014KT P6SM BKN050=



000
FTUS43 KARX 062338
TAFRST
TAF
KRST 062338Z 0700/0724 19018KT 5SM BR SCT007 BKN090
     FM070800 24018KT 5SM BR FEW200
     FM071400 28020G26KT P6SM BKN040
     FM072100 30022G30KT 3SM HZ BKN020=



000
FTUS43 KARX 062338
TAFLSE
TAF
KLSE 062338Z 0700/0724 20012KT P6SM BKN100
     FM071000 23012KT P6SM SCT200
     FM071500 26014KT P6SM BKN050=



000
FTUS43 KARX 062338
TAFRST
TAF
KRST 062338Z 0700/0724 19018KT 5SM BR SCT007 BKN090
     FM070800 24018KT 5SM BR FEW200
     FM071400 28020G26KT P6SM BKN040
     FM072100 30022G30KT 3SM HZ BKN020=



000
FTUS43 KARX 062338
TAFLSE
TAF
KLSE 062338Z 0700/0724 20012KT P6SM BKN100
     FM071000 23012KT P6SM SCT200
     FM071500 26014KT P6SM BKN050=



000
FTUS43 KARX 062338
TAFRST
TAF
KRST 062338Z 0700/0724 19018KT 5SM BR SCT007 BKN090
     FM070800 24018KT 5SM BR FEW200
     FM071400 28020G26KT P6SM BKN040
     FM072100 30022G30KT 3SM HZ BKN020=



000
FTUS43 KARX 062239 AAA
TAFRST
TAF AMD
KRST 062239Z 0623/0718 20014KT 4SM BR OVC005
     FM070000 22014KT P6SM OVC080
     FM070800 22015KT P6SM FEW200
     FM071400 25015KT P6SM OVC040=



000
FTUS43 KARX 062239 AAA
TAFRST
TAF AMD
KRST 062239Z 0623/0718 20014KT 4SM BR OVC005
     FM070000 22014KT P6SM OVC080
     FM070800 22015KT P6SM FEW200
     FM071400 25015KT P6SM OVC040=



000
FTUS43 KARX 062239 AAA
TAFRST
TAF AMD
KRST 062239Z 0623/0718 20014KT 4SM BR OVC005
     FM070000 22014KT P6SM OVC080
     FM070800 22015KT P6SM FEW200
     FM071400 25015KT P6SM OVC040=



000
FTUS43 KARX 062237 AAA
TAFLSE
TAF AMD
KLSE 062237Z 0623/0718 20008KT P6SM BKN200
     FM070000 20010KT P6SM OVC080
     FM071000 21012KT P6SM SCT180
     FM071600 24013KT P6SM OVC050=



000
FTUS43 KARX 062237 AAA
TAFLSE
TAF AMD
KLSE 062237Z 0623/0718 20008KT P6SM BKN200
     FM070000 20010KT P6SM OVC080
     FM071000 21012KT P6SM SCT180
     FM071600 24013KT P6SM OVC050=



000
FTUS43 KARX 062237 AAA
TAFLSE
TAF AMD
KLSE 062237Z 0623/0718 20008KT P6SM BKN200
     FM070000 20010KT P6SM OVC080
     FM071000 21012KT P6SM SCT180
     FM071600 24013KT P6SM OVC050=



000
FTUS43 KARX 061724
TAFRST
TAF
KRST 061724Z 0618/0718 22013KT 2SM BR OVC005
      TEMPO 0620/0623 6SM BR BKN009 OVC015
     FM062300 22014KT P6SM OVC100
     FM070800 22015KT P6SM FEW200
     FM071400 25015KT P6SM OVC040=



000
FTUS43 KARX 061724
TAFRST
TAF
KRST 061724Z 0618/0718 22013KT 2SM BR OVC005
      TEMPO 0620/0623 6SM BR BKN009 OVC015
     FM062300 22014KT P6SM OVC100
     FM070800 22015KT P6SM FEW200
     FM071400 25015KT P6SM OVC040=



000
FTUS43 KARX 061724
TAFLSE
TAF
KLSE 061724Z 0618/0718 20008KT P6SM SCT020 BKN200
     FM070000 20014KT P6SM BKN018 OVC080
     FM071000 21012KT P6SM SCT180
     FM071600 24013KT P6SM OVC050=



000
FTUS43 KARX 061724
TAFLSE
TAF
KLSE 061724Z 0618/0718 20008KT P6SM SCT020 BKN200
     FM070000 20014KT P6SM BKN018 OVC080
     FM071000 21012KT P6SM SCT180
     FM071600 24013KT P6SM OVC050=



000
FTUS43 KARX 061724
TAFLSE
TAF
KLSE 061724Z 0618/0718 20008KT P6SM SCT020 BKN200
     FM070000 20014KT P6SM BKN018 OVC080
     FM071000 21012KT P6SM SCT180
     FM071600 24013KT P6SM OVC050=



000
FTUS43 KARX 061724
TAFRST
TAF
KRST 061724Z 0618/0718 22013KT 2SM BR OVC005
      TEMPO 0620/0623 6SM BR BKN009 OVC015
     FM062300 22014KT P6SM OVC100
     FM070800 22015KT P6SM FEW200
     FM071400 25015KT P6SM OVC040=



000
FTUS43 KARX 061510 AAB
TAFRST
TAF AMD
KRST 061510Z 0615/0712 25014KT 3SM BR OVC006
     FM061600 23014KT 2SM BR OVC005
      TEMPO 0617/0620 1/2SM FG OVC002
     FM062100 22014KT P6SM BKN200
     FM070200 22013KT P6SM BKN100=



000
FTUS43 KARX 061510 AAB
TAFRST
TAF AMD
KRST 061510Z 0615/0712 25014KT 3SM BR OVC006
     FM061600 23014KT 2SM BR OVC005
      TEMPO 0617/0620 1/2SM FG OVC002
     FM062100 22014KT P6SM BKN200
     FM070200 22013KT P6SM BKN100=



000
FTUS43 KARX 061510 AAB
TAFRST
TAF AMD
KRST 061510Z 0615/0712 25014KT 3SM BR OVC006
     FM061600 23014KT 2SM BR OVC005
      TEMPO 0617/0620 1/2SM FG OVC002
     FM062100 22014KT P6SM BKN200
     FM070200 22013KT P6SM BKN100=



000
FTUS43 KARX 061314 AAA
TAFLSE
TAF AMD
KLSE 061314Z 0613/0712 26006KT P6SM OVC011
     FM062000 20010KT P6SM SCT030 BKN200
     FM070000 20012KT P6SM BKN100=



000
FTUS43 KARX 061314 AAA
TAFRST
TAF AMD
KRST 061314Z 0613/0712 26014KT 6SM BR OVC008
     FM061800 22014KT P6SM BKN200
     FM070200 22013KT P6SM BKN100=



000
FTUS43 KARX 061126
TAFRST
TAF
KRST 061126Z 0612/0712 26014KT 6SM BR OVC008
     FM061500 22014KT P6SM BKN200
     FM070200 22013KT P6SM BKN100=



000
FTUS43 KARX 061126
TAFLSE
TAF
KLSE 061126Z 0612/0712 26006KT P6SM OVC011
     FM061700 20010KT P6SM SCT030 BKN200
     FM070000 20012KT P6SM BKN100=



000
FTUS43 KARX 061126
TAFRST
TAF
KRST 061126Z 0612/0712 26014KT 6SM BR OVC008
     FM061500 22014KT P6SM BKN200
     FM070200 22013KT P6SM BKN100=



000
FTUS43 KARX 061126
TAFRST
TAF
KRST 061126Z 0612/0712 26014KT 6SM BR OVC008
     FM061500 22014KT P6SM BKN200
     FM070200 22013KT P6SM BKN100=



000
FTUS43 KARX 061126
TAFLSE
TAF
KLSE 061126Z 0612/0712 26006KT P6SM OVC011
     FM061700 20010KT P6SM SCT030 BKN200
     FM070000 20012KT P6SM BKN100=



000
FTUS43 KARX 061126
TAFLSE
TAF
KLSE 061126Z 0612/0712 26006KT P6SM OVC011
     FM061700 20010KT P6SM SCT030 BKN200
     FM070000 20012KT P6SM BKN100=



000
FTUS43 KARX 061106 AAB
TAFLSE
TAF AMD
KLSE 061106Z 0611/0706 19006KT P6SM OVC011
     FM061700 20010KT P6SM SCT030 BKN200
     FM070000 19012KT P6SM BKN100=



000
FTUS43 KARX 061106 AAB
TAFLSE
TAF AMD
KLSE 061106Z 0611/0706 19006KT P6SM OVC011
     FM061700 20010KT P6SM SCT030 BKN200
     FM070000 19012KT P6SM BKN100=



000
FTUS43 KARX 061106 AAB
TAFLSE
TAF AMD
KLSE 061106Z 0611/0706 19006KT P6SM OVC011
     FM061700 20010KT P6SM SCT030 BKN200
     FM070000 19012KT P6SM BKN100=



000
FTUS43 KARX 061015 AAA
TAFRST
TAF AMD
KRST 061015Z 0610/0706 25012KT 5SM BR OVC006
     FM061500 22014KT P6SM BKN200
     FM070200 22016KT P6SM BKN100=



000
FTUS43 KARX 060739 AAA
TAFLSE
TAF AMD
KLSE 060739Z 0608/0706 19006KT P6SM OVC017
     FM061400 20010KT P6SM SCT030 BKN200
     FM070000 19012KT P6SM BKN100=



000
FTUS43 KARX 060739 AAA
TAFLSE
TAF AMD
KLSE 060739Z 0608/0706 19006KT P6SM OVC017
     FM061400 20010KT P6SM SCT030 BKN200
     FM070000 19012KT P6SM BKN100=



000
FTUS43 KARX 060739 AAA
TAFLSE
TAF AMD
KLSE 060739Z 0608/0706 19006KT P6SM OVC017
     FM061400 20010KT P6SM SCT030 BKN200
     FM070000 19012KT P6SM BKN100=



000
FTUS43 KARX 060520
TAFRST
TAF
KRST 060520Z 0606/0706 21012KT 4SM BR OVC007
      TEMPO 0607/0610 OVC005
     FM061000 23010KT 3SM BR OVC008
     FM061500 22014KT P6SM BKN200
     FM070200 22016KT P6SM BKN100=



000
FTUS43 KARX 060520
TAFLSE
TAF
KLSE 060520Z 0606/0706 19006KT P6SM OVC022
     FM061400 20010KT P6SM SCT030 BKN200
     FM070000 19012KT P6SM BKN100=



000
FTUS43 KARX 060205 AAA
TAFRST
TAF AMD
KRST 060205Z 0602/0624 20010KT P6SM OVC025
     FM060400 22008KT 6SM BR OVC018
     FM061000 23008KT 3SM BR BKN010
     FM061500 23014KT P6SM BKN200=



000
FTUS43 KARX 052335
TAFRST
TAF
KRST 052335Z 0600/0624 19010KT P6SM OVC060
      TEMPO 0600/0604 4SM -SN BR BKN025
     FM060400 22008KT 6SM BR OVC018
     FM061000 23008KT 3SM BR BKN010
     FM061500 23014KT P6SM BKN200=



000
FTUS43 KARX 052335
TAFLSE
TAF
KLSE 052335Z 0600/0624 18006KT P6SM BKN060 OVC080
     FM060600 19006KT P6SM OVC025
     FM061400 19005KT P6SM SCT030 BKN200=



000
FTUS43 KARX 052335
TAFLSE
TAF
KLSE 052335Z 0600/0624 18006KT P6SM BKN060 OVC080
     FM060600 19006KT P6SM OVC025
     FM061400 19005KT P6SM SCT030 BKN200=



000
FTUS43 KARX 052335
TAFRST
TAF
KRST 052335Z 0600/0624 19010KT P6SM OVC060
      TEMPO 0600/0604 4SM -SN BR BKN025
     FM060400 22008KT 6SM BR OVC018
     FM061000 23008KT 3SM BR BKN010
     FM061500 23014KT P6SM BKN200=



000
FTUS43 KARX 052335
TAFRST
TAF
KRST 052335Z 0600/0624 19010KT P6SM OVC060
      TEMPO 0600/0604 4SM -SN BR BKN025
     FM060400 22008KT 6SM BR OVC018
     FM061000 23008KT 3SM BR BKN010
     FM061500 23014KT P6SM BKN200=



    US Dept of Commerce
    National Oceanic and Atmospheric Administration
    National Weather Service
    1325 East West Highway
    Silver Spring, MD 20910
    Page Author: NWS Internet Services Team
Disclaimer
Information Quality
Credits
Glossary
Privacy Policy
Freedom of Information Act (FOIA)
About Us
Career Opportunities